createdAt,value
2022-10-03T00:01:48.429Z,10.30
2022-10-03T00:04:29.756Z,10.30
2022-10-03T00:07:09.969Z,10.30
2022-10-03T00:09:52.139Z,10.30
2022-10-03T00:12:40.220Z,10.30
2022-10-03T00:15:26.495Z,10.30
2022-10-03T00:18:05.739Z,10.30
2022-10-03T00:21:15.416Z,10.40
2022-10-03T00:23:53.547Z,10.30
2022-10-03T00:26:30.717Z,10.40
2022-10-03T00:29:21.803Z,10.40
2022-10-03T00:32:01.735Z,10.40
2022-10-03T00:34:42.609Z,10.40
2022-10-03T00:37:27.314Z,10.30
2022-10-03T00:40:43.049Z,10.40
2022-10-03T00:48:20.192Z,10.30
2022-10-03T00:51:07.307Z,10.20
2022-10-03T00:53:52.261Z,10.20
2022-10-03T00:56:36.662Z,10.20
2022-10-03T00:59:19.229Z,10.20
2022-10-03T01:01:49.578Z,10.20
2022-10-03T01:04:31.533Z,10.20
2022-10-03T01:07:15.508Z,10.20
2022-10-03T01:09:56.122Z,10.20
2022-10-03T01:12:40.800Z,10.10
2022-10-03T01:15:17.362Z,10.10
2022-10-03T01:17:58.972Z,10.20
2022-10-03T01:20:36.181Z,10.20
2022-10-03T01:23:26.991Z,10.20
2022-10-03T01:26:06.570Z,10.20
2022-10-03T01:29:04.791Z,10.20
2022-10-03T01:31:41.710Z,10.20
2022-10-03T01:34:17.560Z,10.20
2022-10-03T01:36:55.536Z,10.20
2022-10-03T01:39:33.171Z,10.20
2022-10-03T01:42:07.245Z,10.20
2022-10-03T01:44:52.795Z,10.20
2022-10-03T01:47:27.999Z,10.20
2022-10-03T01:50:03.268Z,10.20
2022-10-03T01:52:40.232Z,10.10
2022-10-03T01:55:16.088Z,10.10
2022-10-03T01:57:51.764Z,10.10
2022-10-03T02:00:49.024Z,10.10
2022-10-03T02:03:25.273Z,10.10
2022-10-03T02:06:04.245Z,10.10
2022-10-03T02:08:47.087Z,10.10
2022-10-03T02:11:31.214Z,10.00
2022-10-03T02:14:07.572Z,10.10
2022-10-03T02:16:47.679Z,10.00
2022-10-03T02:19:22.424Z,10.00
2022-10-03T02:21:52.461Z,10.00
2022-10-03T02:24:32.497Z,10.00
2022-10-03T02:27:23.842Z,10.00
2022-10-03T02:30:13.437Z,10.00
2022-10-03T02:33:12.282Z,10.00
2022-10-03T02:36:03.993Z,10.00
2022-10-03T02:38:56.337Z,9.90
2022-10-03T02:42:03.002Z,9.90
2022-10-03T02:45:10.624Z,10.00
2022-10-03T02:48:30.086Z,9.90
2022-10-03T02:51:27.898Z,9.90
2022-10-03T02:54:50.541Z,9.80
2022-10-03T02:57:42.269Z,9.80
2022-10-03T03:00:14.631Z,9.80
2022-10-03T03:03:21.544Z,9.80
2022-10-03T03:06:26.276Z,9.80
2022-10-03T03:09:33.154Z,9.80
2022-10-03T03:12:28.713Z,9.80
2022-10-03T03:15:49.546Z,9.80
2022-10-03T03:18:27.779Z,9.80
2022-10-03T03:21:14.076Z,9.70
2022-10-03T03:23:59.772Z,9.70
2022-10-03T03:26:50.721Z,9.70
2022-10-03T03:29:30.061Z,9.70
2022-10-03T03:32:06.242Z,9.70
2022-10-03T03:34:44.843Z,9.70
2022-10-03T03:37:23.383Z,9.70
2022-10-03T03:40:08.015Z,9.70
2022-10-03T03:42:56.442Z,9.70
2022-10-03T03:45:46.812Z,9.70
2022-10-03T03:48:31.035Z,9.70
2022-10-03T03:51:14.681Z,9.70
2022-10-03T03:54:02.100Z,9.80
2022-10-03T03:57:01.472Z,9.80
2022-10-03T03:59:47.112Z,9.70
2022-10-03T04:02:29.204Z,9.70
2022-10-03T04:05:10.170Z,9.70
2022-10-03T04:07:52.990Z,9.70
2022-10-03T04:10:38.323Z,9.70
2022-10-03T04:13:25.438Z,9.70
2022-10-03T04:16:08.276Z,9.70
2022-10-03T04:19:00.707Z,9.80
2022-10-03T04:21:45.620Z,9.70
2022-10-03T04:24:30.265Z,9.70
2022-10-03T04:27:09.786Z,9.70
2022-10-03T04:29:48.030Z,9.70
2022-10-03T04:33:06.823Z,9.70
2022-10-03T04:35:55.812Z,9.70
2022-10-03T04:38:43.056Z,9.70
2022-10-03T04:41:23.456Z,9.70
2022-10-03T04:44:00.303Z,9.70
2022-10-03T04:46:34.288Z,9.70
2022-10-03T04:49:13.080Z,9.70
2022-10-03T04:51:55.364Z,9.70
2022-10-03T04:54:36.928Z,9.60
2022-10-03T04:57:12.664Z,9.70
2022-10-03T04:59:48.479Z,9.60
2022-10-03T05:02:33.817Z,9.60
2022-10-03T05:05:22.414Z,9.60
2022-10-03T05:07:59.278Z,9.60
2022-10-03T05:11:06.717Z,9.60
2022-10-03T05:13:48.086Z,9.60
2022-10-03T05:16:30.195Z,9.60
2022-10-03T05:19:19.970Z,9.60
2022-10-03T05:21:56.941Z,9.60
2022-10-03T05:24:36.969Z,9.60
2022-10-03T05:27:16.133Z,9.60
2022-10-03T05:29:52.639Z,9.60
2022-10-03T05:32:28.343Z,9.60
2022-10-03T05:35:13.600Z,9.60
2022-10-03T05:38:18.785Z,9.60
2022-10-03T05:41:02.030Z,9.60
2022-10-03T05:43:46.307Z,9.50
2022-10-03T05:46:23.710Z,9.60
2022-10-03T05:48:57.686Z,9.60
2022-10-03T05:51:54.937Z,9.60
2022-10-03T05:54:59.633Z,9.60
2022-10-03T05:58:09.486Z,9.60
2022-10-03T06:00:59.342Z,9.60
2022-10-03T06:04:09.370Z,9.60
2022-10-03T06:06:52.166Z,9.60
2022-10-03T06:09:38.264Z,9.60
2022-10-03T06:12:10.811Z,9.60
2022-10-03T06:15:12.259Z,9.60
2022-10-03T06:18:06.829Z,9.60
2022-10-03T06:21:04.942Z,9.70
2022-10-03T06:23:59.734Z,9.70
2022-10-03T06:27:00.471Z,9.70
2022-10-03T06:30:11.897Z,9.70
2022-10-03T06:33:30.100Z,9.70
2022-10-03T06:36:28.424Z,9.70
2022-10-03T06:39:33.992Z,9.70
2022-10-03T06:42:31.546Z,9.80
2022-10-03T06:45:38.866Z,9.80
2022-10-03T06:48:35.938Z,9.80
2022-10-03T06:51:40.114Z,9.80
2022-10-03T06:54:45.937Z,9.90
2022-10-03T06:57:36.207Z,10.00
2022-10-03T07:00:18.538Z,10.00
2022-10-03T07:03:18.876Z,10.00
2022-10-03T07:06:22.718Z,10.00
2022-10-03T07:09:32.597Z,10.00
2022-10-03T07:12:40.610Z,10.00
2022-10-03T07:16:02.228Z,10.10
2022-10-03T07:18:47.564Z,10.10
2022-10-03T07:21:37.428Z,10.10
2022-10-03T07:24:20.635Z,10.10
2022-10-03T07:27:11.831Z,10.10
2022-10-03T07:30:05.199Z,10.10
2022-10-03T07:33:03.466Z,10.10
2022-10-03T07:36:16.770Z,10.10
2022-10-03T07:39:11.362Z,10.20
2022-10-03T07:42:13.401Z,10.20
2022-10-03T07:45:30.188Z,10.20
2022-10-03T07:48:23.758Z,10.20
2022-10-03T07:51:00.104Z,10.30
2022-10-03T07:54:11.013Z,10.30
2022-10-03T07:57:03.479Z,10.40
2022-10-03T07:59:54.770Z,10.60
2022-10-03T08:02:40.301Z,10.60
2022-10-03T08:05:29.651Z,10.60
2022-10-03T08:08:19.058Z,10.60
2022-10-03T08:11:25.984Z,10.70
2022-10-03T08:14:08.524Z,10.80
2022-10-03T08:17:02.261Z,10.80
2022-10-03T08:19:46.387Z,10.80
2022-10-03T08:22:22.187Z,10.90
2022-10-03T08:25:16.916Z,10.90
2022-10-03T08:28:02.626Z,10.90
2022-10-03T08:30:44.420Z,10.90
2022-10-03T08:33:36.200Z,10.90
2022-10-03T08:36:50.681Z,10.90
2022-10-03T08:39:46.667Z,10.90
2022-10-03T08:42:37.193Z,10.90
2022-10-03T08:45:47.487Z,10.90
2022-10-03T08:48:45.360Z,11.00
2022-10-03T08:51:56.348Z,11.00
2022-10-03T08:54:48.317Z,10.90
2022-10-03T08:57:34.022Z,11.00
2022-10-03T09:00:17.714Z,11.10
2022-10-03T09:03:35.249Z,11.20
2022-10-03T09:06:35.990Z,11.30
2022-10-03T09:09:48.801Z,11.40
2022-10-03T09:12:34.127Z,11.60
2022-10-03T09:15:15.834Z,11.60
2022-10-03T09:18:12.200Z,11.60
2022-10-03T09:21:14.259Z,11.70
2022-10-03T09:24:14.307Z,11.60
2022-10-03T09:27:16.638Z,11.60
2022-10-03T09:30:20.991Z,11.50
2022-10-03T09:33:28.968Z,11.40
2022-10-03T09:36:24.805Z,11.40
2022-10-03T09:39:37.277Z,11.40
2022-10-03T09:42:43.922Z,11.60
2022-10-03T09:45:34.395Z,11.60
2022-10-03T09:48:33.729Z,11.70
2022-10-03T09:51:22.499Z,11.80
2022-10-03T09:54:30.339Z,11.90
2022-10-03T09:57:23.125Z,12.20
2022-10-03T10:00:17.377Z,12.50
2022-10-03T10:03:04.748Z,12.90
2022-10-03T10:05:57.782Z,13.10
2022-10-03T10:08:56.836Z,13.30
2022-10-03T10:11:35.333Z,13.40
2022-10-03T10:14:44.124Z,13.30
2022-10-03T10:17:49.830Z,13.30
2022-10-03T10:21:21.488Z,13.20
2022-10-03T10:23:59.726Z,13.10
2022-10-03T10:27:14.596Z,12.90
2022-10-03T10:30:07.534Z,12.80
2022-10-03T10:33:25.416Z,12.70
2022-10-03T10:36:55.382Z,12.90
2022-10-03T10:43:15.600Z,13.40
2022-10-03T10:46:33.728Z,13.40
2022-10-03T10:49:58.241Z,13.60
2022-10-03T10:53:10.181Z,13.60
2022-10-03T10:56:19.924Z,13.60
2022-10-03T10:59:32.453Z,13.60
2022-10-03T11:02:40.088Z,13.50
2022-10-03T11:05:41.154Z,13.50
2022-10-03T11:08:41.269Z,13.80
2022-10-03T11:11:43.514Z,13.90
2022-10-03T11:14:45.687Z,13.90
2022-10-03T11:17:47.680Z,13.80
2022-10-03T11:20:53.762Z,13.50
2022-10-03T11:23:39.566Z,13.30
2022-10-03T11:26:43.562Z,13.00
2022-10-03T11:29:57.081Z,12.90
2022-10-03T11:32:52.186Z,13.00
2022-10-03T11:35:48.332Z,13.40
2022-10-03T11:38:22.738Z,13.70
2022-10-03T11:41:01.717Z,13.80
2022-10-03T11:44:07.278Z,14.10
2022-10-03T11:46:52.609Z,14.20
2022-10-03T11:49:44.720Z,14.40
2022-10-03T11:52:28.835Z,14.60
2022-10-03T11:55:10.184Z,14.70
2022-10-03T11:57:40.762Z,14.70
2022-10-03T12:00:17.557Z,14.70
2022-10-03T12:03:05.888Z,14.70
2022-10-03T12:05:48.065Z,14.70
2022-10-03T12:08:41.968Z,14.40
2022-10-03T12:11:17.823Z,14.30
2022-10-03T12:14:05.241Z,14.00
2022-10-03T12:16:57.772Z,13.90
2022-10-03T12:19:31.857Z,13.70
2022-10-03T12:22:10.230Z,13.60
2022-10-03T12:24:42.266Z,13.50
2022-10-03T12:27:20.374Z,13.60
2022-10-03T12:29:58.719Z,13.80
2022-10-03T12:32:49.790Z,14.00
2022-10-03T12:35:35.801Z,14.40
2022-10-03T12:38:19.232Z,14.50
2022-10-03T12:40:54.494Z,14.50
2022-10-03T12:43:40.711Z,14.40
2022-10-03T12:46:16.989Z,14.40
2022-10-03T12:48:56.001Z,14.40
2022-10-03T12:51:38.039Z,14.30
2022-10-03T12:54:16.490Z,14.30
2022-10-03T12:56:50.116Z,14.30
2022-10-03T12:59:31.612Z,14.30
2022-10-03T13:02:32.515Z,14.30
2022-10-03T13:05:30.803Z,14.20
2022-10-03T13:08:03.325Z,14.00
2022-10-03T13:10:41.865Z,14.00
2022-10-03T13:13:23.762Z,13.90
2022-10-03T13:16:21.124Z,13.90
2022-10-03T13:18:57.365Z,13.80
2022-10-03T13:21:46.036Z,13.70
2022-10-03T13:24:29.738Z,13.50
2022-10-03T13:27:10.653Z,13.40
2022-10-03T13:29:43.719Z,13.30
2022-10-03T13:32:23.865Z,13.20
2022-10-03T13:35:25.547Z,13.10
2022-10-03T13:38:20.332Z,13.10
2022-10-03T13:40:57.279Z,13.00
2022-10-03T13:43:37.714Z,13.00
2022-10-03T13:46:12.834Z,13.00
2022-10-03T13:48:42.969Z,13.10
2022-10-03T13:51:23.066Z,13.10
2022-10-03T13:54:01.185Z,13.30
2022-10-03T13:56:44.704Z,13.40
2022-10-03T13:59:36.571Z,13.50
2022-10-03T14:02:18.633Z,13.50
2022-10-03T14:05:07.617Z,13.50
2022-10-03T14:07:47.911Z,13.50
2022-10-03T14:10:33.722Z,13.60
2022-10-03T14:13:17.099Z,13.60
2022-10-03T14:15:51.286Z,13.60
2022-10-03T14:18:33.171Z,13.60
2022-10-03T14:21:28.085Z,13.50
2022-10-03T14:24:06.677Z,13.50
2022-10-03T14:26:40.007Z,13.40
2022-10-03T14:29:20.249Z,13.30
2022-10-03T14:31:57.014Z,13.20
2022-10-03T14:34:39.995Z,13.20
2022-10-03T14:37:19.712Z,13.20
2022-10-03T14:40:02.451Z,13.10
2022-10-03T14:42:54.906Z,13.00
2022-10-03T14:45:29.262Z,13.00
2022-10-03T14:48:07.580Z,13.10
2022-10-03T14:50:40.856Z,13.10
2022-10-03T14:53:16.300Z,13.10
2022-10-03T14:55:55.995Z,13.10
2022-10-03T14:58:29.410Z,13.10
2022-10-03T15:01:07.497Z,13.10
2022-10-03T15:03:39.924Z,13.10
2022-10-03T15:06:23.653Z,13.10
2022-10-03T15:08:56.044Z,13.10
2022-10-03T15:11:28.372Z,13.10
2022-10-03T15:14:03.405Z,13.10
2022-10-03T15:16:35.907Z,13.10
2022-10-03T15:19:09.925Z,13.10
2022-10-03T15:21:43.241Z,13.10
2022-10-03T15:24:15.181Z,13.10
2022-10-03T15:26:49.958Z,13.00
2022-10-03T15:29:21.797Z,13.00
2022-10-03T15:31:50.562Z,13.00
2022-10-03T15:34:22.221Z,13.00
2022-10-03T15:36:53.118Z,13.00
2022-10-03T15:39:25.312Z,13.00
2022-10-03T15:41:57.153Z,13.00
2022-10-03T15:44:33.739Z,13.00
2022-10-03T15:47:06.148Z,12.90
2022-10-03T15:49:39.269Z,12.90
2022-10-03T15:52:15.572Z,12.80
2022-10-03T15:54:48.829Z,12.80
2022-10-03T15:57:22.934Z,12.80
2022-10-03T16:00:00.658Z,12.80
2022-10-03T16:02:39.610Z,12.70
2022-10-03T16:05:19.513Z,12.70
2022-10-03T16:07:57.233Z,12.60
2022-10-03T16:10:28.124Z,12.60
2022-10-03T16:13:02.164Z,12.50
2022-10-03T16:15:53.493Z,12.50
2022-10-03T16:18:54.525Z,12.40
2022-10-03T16:21:42.170Z,12.40
2022-10-03T16:24:27.008Z,12.40
2022-10-03T16:26:57.885Z,12.30
2022-10-03T16:29:29.987Z,12.20
2022-10-03T16:32:04.976Z,12.20
2022-10-03T16:34:35.824Z,12.20
2022-10-03T16:37:14.335Z,12.10
2022-10-03T16:39:49.746Z,12.10
2022-10-03T16:42:27.672Z,12.00
2022-10-03T16:44:58.788Z,12.00
2022-10-03T16:47:36.333Z,11.90
2022-10-03T16:50:24.738Z,11.90
2022-10-03T16:52:55.010Z,11.90
2022-10-03T16:55:29.785Z,11.80
2022-10-03T16:58:00.674Z,11.80
2022-10-03T17:00:36.180Z,11.80
2022-10-03T17:03:16.423Z,11.80
2022-10-03T17:05:48.224Z,11.80
2022-10-03T17:08:40.704Z,11.80
2022-10-03T17:11:09.410Z,11.80
2022-10-03T17:13:46.839Z,11.80
2022-10-03T17:16:21.372Z,11.80
2022-10-03T17:19:03.522Z,11.70
2022-10-03T17:21:33.693Z,11.70
2022-10-03T17:24:08.099Z,11.70
2022-10-03T17:26:40.652Z,11.70
2022-10-03T17:29:15.220Z,11.70
2022-10-03T17:31:47.627Z,11.70
2022-10-03T17:34:21.021Z,11.70
2022-10-03T17:37:17.606Z,11.70
2022-10-03T17:39:54.900Z,11.70
2022-10-03T17:42:45.483Z,11.70
2022-10-03T17:45:26.193Z,11.70
2022-10-03T17:47:58.746Z,11.70
2022-10-03T17:50:32.045Z,11.70
2022-10-03T17:53:01.704Z,11.70
2022-10-03T17:55:35.113Z,11.70
2022-10-03T17:58:06.914Z,11.70
2022-10-03T18:00:40.822Z,11.70
2022-10-03T18:03:14.733Z,11.70
2022-10-03T18:05:48.082Z,11.70
2022-10-03T18:08:21.550Z,11.70
2022-10-03T18:10:52.414Z,11.70
2022-10-03T18:13:27.710Z,11.70
2022-10-03T18:16:17.052Z,11.80
2022-10-03T18:19:05.592Z,11.70
2022-10-03T18:21:55.063Z,11.70
2022-10-03T18:24:44.608Z,11.70
2022-10-03T18:27:35.520Z,11.60
2022-10-03T18:30:08.526Z,11.60
2022-10-03T18:32:40.119Z,11.60
2022-10-03T18:35:15.314Z,11.60
2022-10-03T18:38:04.793Z,11.60
2022-10-03T18:40:36.383Z,11.60
2022-10-03T18:43:06.511Z,11.60
2022-10-03T18:45:41.725Z,11.60
2022-10-03T18:48:14.537Z,11.60
2022-10-03T18:50:54.759Z,11.50
2022-10-03T18:53:32.380Z,11.50
2022-10-03T18:56:04.265Z,11.50
2022-10-03T18:58:35.607Z,11.50
2022-10-03T19:01:08.387Z,11.60
2022-10-03T19:03:39.350Z,11.60
2022-10-03T19:06:18.570Z,11.60
2022-10-03T19:08:52.488Z,11.50
2022-10-03T19:11:24.708Z,11.40
2022-10-03T19:14:01.563Z,11.40
2022-10-03T19:16:43.330Z,11.40
2022-10-03T19:19:17.686Z,11.30
2022-10-03T19:21:47.931Z,11.30
2022-10-03T19:24:34.450Z,11.30
2022-10-03T19:28:30.723Z,11.30
2022-10-03T19:31:27.428Z,11.30
2022-10-03T19:34:43.584Z,11.20
2022-10-03T19:37:36.759Z,11.30
2022-10-03T19:41:11.561Z,11.20
2022-10-03T19:44:32.475Z,11.20
2022-10-03T19:47:19.447Z,11.20
2022-10-03T19:54:57.899Z,11.20
2022-10-03T19:57:47.042Z,11.10
2022-10-03T20:00:32.316Z,11.00
2022-10-03T20:03:13.621Z,11.00
2022-10-03T20:05:47.998Z,10.90
2022-10-03T20:08:23.990Z,10.80
2022-10-03T20:11:26.123Z,10.80
2022-10-03T20:13:57.166Z,10.70
2022-10-03T20:16:29.947Z,10.70
2022-10-03T20:19:05.549Z,10.70
2022-10-03T20:21:37.173Z,10.60
2022-10-03T20:24:14.257Z,10.60
2022-10-03T20:26:49.837Z,10.60
2022-10-03T20:29:31.548Z,10.60
2022-10-03T20:32:05.033Z,10.60
2022-10-03T20:34:36.773Z,10.60
2022-10-03T20:37:23.966Z,10.50
2022-10-03T20:39:55.723Z,10.50
2022-10-03T20:42:28.703Z,10.40
2022-10-03T20:45:03.057Z,10.40
2022-10-03T20:47:51.200Z,10.40
2022-10-03T20:50:27.126Z,10.40
2022-10-03T20:52:59.262Z,10.30
2022-10-03T20:55:32.778Z,10.40
2022-10-03T20:58:11.593Z,10.40
2022-10-03T21:00:47.583Z,10.40
2022-10-03T21:03:27.875Z,10.40
2022-10-03T21:05:58.692Z,10.40
2022-10-03T21:08:31.740Z,10.30
2022-10-03T21:11:05.356Z,10.40
2022-10-03T21:13:38.272Z,10.40
2022-10-03T21:16:18.628Z,10.40
2022-10-03T21:18:50.986Z,10.40
2022-10-03T21:21:27.981Z,10.50
2022-10-03T21:24:14.828Z,10.50
2022-10-03T21:26:47.393Z,10.50
2022-10-03T21:29:18.185Z,10.50
2022-10-03T21:31:53.449Z,10.50
2022-10-03T21:34:38.704Z,10.50
2022-10-03T21:37:19.319Z,10.50
2022-10-03T21:40:08.948Z,10.50
2022-10-03T21:42:46.642Z,10.40
2022-10-03T21:45:33.682Z,10.50
2022-10-03T21:48:23.518Z,10.50
2022-10-03T21:51:05.792Z,10.50
2022-10-03T21:53:49.015Z,10.50
2022-10-03T21:56:44.545Z,10.50
2022-10-03T21:59:38.083Z,10.50
2022-10-03T22:02:23.918Z,10.50
2022-10-03T22:04:58.476Z,10.50
2022-10-03T22:07:37.497Z,10.60
2022-10-03T22:10:23.045Z,10.50
2022-10-03T22:12:54.457Z,10.50
2022-10-03T22:15:31.026Z,10.50
2022-10-03T22:18:02.279Z,10.50
2022-10-03T22:20:33.827Z,10.50
2022-10-03T22:23:18.334Z,10.50
2022-10-03T22:25:57.085Z,10.50
2022-10-03T22:28:39.148Z,10.50
2022-10-03T22:31:18.308Z,10.50
2022-10-03T22:34:04.404Z,10.50
2022-10-03T22:36:36.111Z,10.50
2022-10-03T22:39:10.891Z,10.50
2022-10-03T22:41:41.187Z,10.50
2022-10-03T22:44:12.252Z,10.50
2022-10-03T22:46:45.557Z,10.50
2022-10-03T22:49:21.128Z,10.50
2022-10-03T22:51:54.973Z,10.50
2022-10-03T22:54:31.742Z,10.50
2022-10-03T22:57:06.045Z,10.50
2022-10-03T22:59:39.818Z,10.50
2022-10-03T23:02:18.698Z,10.50
2022-10-03T23:04:54.256Z,10.50
2022-10-03T23:07:46.527Z,10.50
2022-10-03T23:10:49.727Z,10.50
2022-10-03T23:13:26.051Z,10.50
2022-10-03T23:16:00.025Z,10.50
2022-10-03T23:19:05.283Z,10.50
2022-10-03T23:21:47.909Z,10.50
2022-10-03T23:24:34.308Z,10.50
2022-10-03T23:28:08.375Z,10.60
2022-10-03T23:30:56.678Z,10.60
2022-10-03T23:34:05.030Z,10.60
2022-10-03T23:37:07.473Z,10.60
2022-10-03T23:39:41.595Z,10.60
2022-10-03T23:42:24.723Z,10.60
2022-10-03T23:44:59.204Z,10.60
2022-10-03T23:47:32.721Z,10.60
2022-10-03T23:50:03.617Z,10.60
2022-10-03T23:53:24.779Z,10.60
2022-10-03T23:56:57.852Z,10.60
